Share

Frederick, OK

Frederick Municipal (KFDR) Elev 1253 ft | 34.35 °N, 98.98 °W | Change Station

Current weather conditions updated 7 minutes ago

Rain
Rain Mist
59 °F
Feels Like 59 °F
N
7
Wind Variable Wind from East
Sunrise 6:58 AM
Sunset 8:11 PM
Moon Waning Gibbous

Today is forecast to be Cooler than yesterday. Morning thunderstorms.

Pressure 30.03 in
Visibility 2.5 miles
Clouds Mostly Cloudy 5500 ft
Overcast 7500 ft
Dew Point 57 °F
Humidity 93%
Rainfall 0.07 in
Snow Depth Not available.
UV 0 out of 16
Pollen 6.90 out of 12
Air Quality Not available.
Flu Activity Regional
METAR KFDR 201253Z AUTO 08006KT 2 1/2SM RA BR BKN055 OVC075 15/14 A3006 RMK AO2 SLP167 P0004 T01500139 $

More Conditions Fewer Conditions

Pressure 30.03 in
Visibility 2.5 miles
Clouds Mostly Cloudy 5500 ft
Overcast 7500 ft
Dew Point 57 °F
Humidity 93%
Rainfall 0.07 in
Snow Depth Not available.
UV 0 out of 16
Pollen 6.90 out of 12
Air Quality Not available.
Flu Activity Regional
METAR KFDR 201253Z AUTO 08006KT 2 1/2SM RA BR BKN055 OVC075 15/14 A3006 RMK AO2 SLP167 P0004 T01500139 $

More Conditions Fewer Conditions

10-Day Weather Forecast

Almanac

Astronomy

Apr. 20, 2014 Rise Set
Actual Time 6:58 AM CDT 8:11 PM CDT
Civil Twilight 6:32 AM CDT 8:37 PM CDT
Nautical Twilight 6:01 AM CDT 9:09 PM CDT
Astronomical Twilight 5:28 AM CDT 9:41 PM CDT
Moon 12:47 AM CDT 11:25 AM CDT
Length of Visible Light 14h 05m
Length of Day
13h 13m
Tomorrow will be 2m 0s longer.
Waning Gibbous, 70% of the Moon is Illuminated
Today
Waning Gibbous
Apr 22
Last Quarter
Apr 29
New
May 6
First Quarter
May 14
Full

Today's Extremes

State Highs State Lows

Community

  • EARLY FOGGY MORNING
    EARLY FOGGY MORNING
  • Easter Greetings
    Easter Greetings
  • Sunny day at the coast-Cape Arago Lighthouse
    Sunny day at the coast-Cape Arago Lighthouse
  • Cherry Blossoms
    Cherry Blossoms
  • White-Crowned Sparrow
    White-Crowned Sparrow

WunderPhotos

Upload Photos

1,703,195 photos uploaded!

Nearby

Snow Depth

Station Depth Elevation
No new snow has been reported.

Coastal Water Temperatures

Place Temperature
No Stations Reporting

Earthquake Activity

City Distance Mag. Time & Date
Perry, Oklahoma 153 miles 2.7 11:52 AM CDT
2014-04-16
Crescent, Oklahoma 142 miles 2.8 7:36 PM CDT
2014-04-15
Perry, Oklahoma 163 miles 2.5 1:42 PM CDT
2014-04-14
Perry, Oklahoma 162 miles 2.6 1:20 PM CDT
2014-04-14
Minimum magnitude displayed is 2.5.

Nearby Weather Stations

Station Location Temp. Dew Point Humidity Wind Precip. Elev Updated Type
Northside ISD, Vernon, TX 59.2 °F 57 °F 93% ESE  at  3.0 mph 0.00 in / hr 1317 ft 8:00 AM CDT Rapid Fire
Old Corral, Electra, TX 59.7 °F 57 °F 91% East  at  2.2 mph - / hr 1112 ft 7:51 AM CDT Normal
Electra, Electra, TX 61.2 °F 56 °F 84% SSE  at  0.9 mph 0.00 in / hr 1227 ft 8:00 AM CDT Rapid Fire

Show More Stations Show Fewer Stations

What do you think?

We're not finished. Please let us know what you like, what you don't like, and what you are still missing.